NCAR-RAP Real-Time Weather Data

Output produced by METARs form (18 August 2018  01:02 UTC)
found at http://weather.rap.ucar.edu/surface/
 
RJFR 180000Z VRB06KT 9999 FEW030 25/17 Q1011
RJFR 172300Z VRB06KT 9999 FEW025 25/17 Q1011
RJFR 172200Z 12008KT 060V190 9999 FEW025 24/16 Q1011
RJFR 172100Z VRB06KT 9999 FEW025 24/15 Q1010
RJFR 172000Z VRB07KT 9999 FEW030 24/15 Q1010
RJFR 171900Z VRB08KT 9999 FEW030 24/16 Q1010
RJFR 171800Z VRB09KT 9999 FEW030 25/15 Q1010
RJFR 171700Z 10013KT 040V180 9999 FEW030 25/17 Q1010
RJFR 171600Z VRB11KT 9999 FEW030 SCT045 26/17 Q1009
RJFR 171500Z 07010KT 9999 FEW030 BKN045 26/19 Q1009
RJFR 171400Z 02009KT 9999 FEW030 SCT/// 25/20 Q1009
RJFR 171300Z 02009KT 9999 FEW030 25/19 Q1010
RJFR 171200Z 01013KT 9999 FEW030 26/19 Q1009
RJFR 171100Z 01014KT 9999 FEW030 26/19 Q1009
RJFR 171000Z 01013KT 9999 FEW020 SCT/// 27/18 Q1008
RJFR 170900Z 36014KT 9999 FEW030 28/19 Q1008
RJFR 170800Z 03005KT 9999 FEW030 29/18 Q1008
RJFR 170700Z VRB03KT 9999 FEW025 29/16 Q1008
RJFR 170600Z 14006KT 9999 FEW025 29/17 Q1008
RJFR 170500Z 15008KT 9999 FEW025 29/17 Q1009
RJFR 170400Z 15008KT 9999 FEW025 29/17 Q1009
RJFR 170300Z 14006KT 9999 FEW030 29/17 Q1010
RJFR 170200Z 12004KT 080V170 9999 FEW030 28/18 Q1010
RJFR 170100Z VRB04KT 9999 FEW030 BKN070 28/17 Q1011
RJFR 170000Z 05010KT 9999 FEW025 BKN045 27/15 Q1011
RJFR 162300Z 03016KT 9999 FEW020 SCT025 BKN040 26/16 Q1011
RJFR 162200Z 03018KT 9999 FEW020 BKN025 BKN040 26/16 Q1010
RJFR 162100Z 03016KT 9999 FEW025 BKN040 26/18 Q1010
RJFR 162000Z 03017KT 9999 FEW020 SCT025 BKN040 26/18 Q1009
RJFR 161900Z 03015KT 9999 FEW025 BKN045 25/19 Q1010
RJFR 161800Z 02015KT 9999 -SHRA FEW015 SCT025 BKN035 25/21 Q1010
RJFR 161700Z 03017KT 9999 FEW015 BKN030 BKN060 26/20 Q1009
RJFR 161600Z 02016KT 9999 FEW015 BKN030 BKN060 27/21 Q1010
RJFR 161500Z 02013KT 9999 FEW015 SCT030 BKN100 27/22 Q1010
RJFR 161400Z 02014KT 9999 FEW015 SCT035 BKN060 28/22 Q1010
RJFR 161300Z 03012KT 9999 FEW008 BKN015 BKN030 28/23 Q1010
RJFR 161200Z 04007KT 9999 FEW008 SCT010 BKN015 28/24 Q1009
RJFR 161100Z 07007KT 9999 FEW008 SCT015 BKN070 27/23 Q1009
RJFR 161000Z VRB04KT 9999 FEW008 BKN045 BKN060 28/23 Q1009
RJFR 160900Z 08010KT 050V130 9999 FEW008 BKN140 28/23 Q1008
RJFR 160800Z 08010KT 9999 FEW010 SCT050 BKN130 29/24 Q1008
RJFR 160733Z VRB04KT 9999 FEW010 BKN140 29/24 Q1008 RMK 1CU010 7AC140 A2979
RJFR 160700Z 04010KT 9999 FEW010 BKN170 BKN/// 30/23 Q1008
RJFR 160600Z 04008KT 9999 FEW008 SCT120 BKN/// 29/22 Q1008
RJFR 160500Z VRB06KT 9999 FEW008 FEW030CB SCT120 BKN/// 29/24 Q1008
RJFR 160400Z 08009KT 030V100 9999 FEW010 FEW030CB SCT120 BKN/// 29/24 Q1008
RJFR 160300Z 07011KT 9999 FEW010 SCT120 BKN/// 30/24 Q1009
RJFR 160200Z 07014KT 9999 FEW010 SCT170 BKN/// 29/24 Q1009
RJFR 160100Z 06010KT 9999 FEW010 SCT080 BKN120 29/24 Q1009
RJFR 160000Z 07011KT 9999 FEW010 SCT070 BKN120 28/23 Q1008
RJFR 152300Z 06010KT 9999 FEW015 SCT045 BKN120 27/23 Q1008
RJFR 152200Z 06008KT 9999 FEW015 SCT030 BKN120 28/24 Q1007
RJFR 152100Z 07009KT 9999 FEW015 SCT025 BKN120 27/24 Q1007
RJFR 152000Z 05009KT 9999 FEW008 SCT015 BKN120 27/24 Q1007
RJFR 151900Z 13004KT 080V200 9999 FEW020 BKN120 28/23 Q1007
RJFR 151800Z 13008KT 090V170 9999 FEW020 SCT/// 28/24 Q1007
RJFR 151700Z 13013KT 9999 FEW010 SCT/// 28/23 Q1007
RJFR 151600Z 14012KT 9999 FEW010 SCT/// 28/24 Q1007
RJFR 151500Z 12011KT 9999 FEW015 SCT090 BKN/// 28/24 Q1007
RJFR 151400Z 13011KT 9999 FEW015 SCT080 BKN/// 28/24 Q1008